Time;durP1;ratioP1;P1;durP2;ratioP2;P2;SDS_P1;SDS_P2;PMS_P1;PMS_P2;Temp;Humidity;BMP_temperature;BMP_pressure;BME280_temperature;BME280_humidity;BME280_pressure;Samples;Min_cycle;Max_cycle;Signal;HPM_P1;HPM_P2
2021/09/08 00:02:13;;;;;;;;;;;;;;;14.17;85.97;100987.08;1596535;88;20919;-85
2021/09/08 00:04:39;;;;;;;;;;;;;;;14.13;86.38;100984.89;1578778;88;20154;-85
2021/09/08 00:07:04;;;;;;;;;;;;;;;14.13;85.78;100988.38;1574438;88;20214;-86
2021/09/08 00:09:30;;;;;;;;;;;;;;;14.13;85.80;100985.72;1595162;88;20183;-85
2021/09/08 00:11:56;;;;;;;;;;;;;;;14.16;85.35;100986.73;1597494;88;21299;-85
2021/09/08 00:14:21;;;;;;;;;;;;;;;14.15;85.16;100989.55;1597415;88;20158;-85
2021/09/08 00:16:48;;;;;;;;;;;;;;;14.16;84.99;100984.58;1596734;88;20165;-84
2021/09/08 00:19:15;;;;;;;;;;;;;;;14.10;85.42;100986.54;1596135;88;20320;-88
2021/09/08 00:21:41;;;;;;;;;;;;;;;14.14;85.00;100987.90;1575213;88;20313;-84
2021/09/08 00:24:08;;;;;;;;;;;;;;;14.13;84.94;100994.19;1599113;88;21164;-87
2021/09/08 00:26:38;;;;;;;;;;;;;;;14.13;84.80;100987.55;1596449;88;20131;-83
2021/09/08 00:29:03;;;;;;;;;;;;;;;14.01;85.42;100988.31;1598576;88;20193;-86
2021/09/08 00:31:29;;;;;;;;;;;;;;;14.05;85.00;100991.50;1596278;88;20153;-84
2021/09/08 00:33:56;;;;;;;;;;;;;;;14.04;84.94;100995.14;1599762;88;20271;-87
2021/09/08 00:36:21;;;;;;;;;;;;;;;14.05;84.75;100994.16;1600496;88;21324;-88
2021/09/08 00:38:47;;;;;;;;;;;;;;;14.06;84.57;100995.80;1596899;88;20204;-86
2021/09/08 00:41:22;;;;;;;;;;;;;;;14.05;84.17;100994.16;1599039;88;20276;-87
2021/09/08 00:43:48;;;;;;;;;;;;;;;14.02;84.20;100996.63;1596558;88;20231;-87
2021/09/08 00:46:13;;;;;;;;;;;;;;;14.03;83.81;100996.13;1600714;88;20222;-87
2021/09/08 00:48:39;;;;;;;;;;;;;;;13.99;83.97;100992.45;1596135;88;21148;-87
2021/09/08 00:51:05;;;;;;;;;;;;;;;13.95;84.38;100992.45;1597578;88;20154;-86
2021/09/08 00:53:34;;;;;;;;;;;;;;;13.80;85.76;100996.67;1596727;88;20196;-86
2021/09/08 00:56:02;;;;;;;;;;;;;;;13.62;86.84;100998.86;1597750;88;20763;-86
2021/09/08 00:58:28;;;;;;;;;;;;;;;13.47;87.53;100999.10;1596542;88;20206;-89
2021/09/08 01:00:55;;;;;;;;;;;;;;;13.41;88.24;100995.74;1598282;88;21136;-84
2021/09/08 01:03:20;;;;;;;;;;;;;;;13.40;88.37;100990.09;1599583;88;20535;-83
2021/09/08 01:05:48;;;;;;;;;;;;;;;13.38;88.56;100997.38;1596397;88;20207;-83
2021/09/08 01:08:17;;;;;;;;;;;;;;;13.31;88.78;100990.97;1605075;87;20290;-83
2021/09/08 01:10:46;;;;;;;;;;;;;;;13.25;89.10;100991.94;1579841;88;20200;-83
2021/09/08 01:13:12;;;;;;;;;;;;;;;13.24;89.06;100986.28;1579248;89;21184;-83
2021/09/08 01:15:37;;;;;;;;;;;;;;;13.21;89.22;100991.06;1581130;89;20181;-84
2021/09/08 01:18:03;;;;;;;;;;;;;;;13.21;89.10;100989.73;1582874;88;20136;-83
2021/09/08 01:20:29;;;;;;;;;;;;;;;13.28;88.51;100989.45;1580307;89;20203;-85
2021/09/08 01:22:54;;;;;;;;;;;;;;;13.33;88.07;100986.34;1612409;86;20306;-83
2021/09/08 01:25:27;;;;;;;;;;;;;;;13.38;87.49;100990.74;1585555;88;21130;-83
2021/09/08 01:27:54;;;;;;;;;;;;;;;13.42;87.11;100990.75;1605083;88;20199;-85
2021/09/08 01:30:22;;;;;;;;;;;;;;;13.42;86.94;100993.41;1588822;88;20208;-85
2021/09/08 01:32:48;;;;;;;;;;;;;;;13.46;86.78;100989.47;1567252;89;20189;-83
2021/09/08 01:35:16;;;;;;;;;;;;;;;13.45;86.48;100988.64;1604236;87;20519;-84
2021/09/08 01:37:41;;;;;;;;;;;;;;;13.42;86.22;100990.75;1608788;87;21066;-86
2021/09/08 01:40:10;;;;;;;;;;;;;;;13.43;86.26;100993.75;1582025;89;20839;-85
2021/09/08 01:42:36;;;;;;;;;;;;;;;13.35;86.48;100995.03;1614942;86;20643;-85
2021/09/08 01:45:05;;;;;;;;;;;;;;;13.30;86.77;100995.45;1587106;87;20843;-85
2021/09/08 01:47:31;;;;;;;;;;;;;;;13.37;86.31;100995.70;1630528;86;20597;-84
2021/09/08 01:49:56;;;;;;;;;;;;;;;13.31;86.38;100989.64;1610834;86;21018;-87
2021/09/08 01:52:24;;;;;;;;;;;;;;;13.24;86.63;100986.78;1631021;86;20153;-84
2021/09/08 01:54:49;;;;;;;;;;;;;;;13.21;86.69;100981.28;1629746;86;20199;-86
2021/09/08 01:57:16;;;;;;;;;;;;;;;13.25;86.26;100982.65;1635732;86;20442;-85
2021/09/08 01:59:42;;;;;;;;;;;;;;;13.25;86.68;100985.30;1630909;86;20496;-84
2021/09/08 02:02:07;;;;;;;;;;;;;;;13.27;86.27;100983.32;1633202;86;21104;-85
2021/09/08 02:04:36;;;;;;;;;;;;;;;13.25;86.40;100982.65;1610921;87;20991;-84
2021/09/08 02:07:04;;;;;;;;;;;;;;;13.14;86.86;100986.84;1629681;86;20215;-86
2021/09/08 02:09:33;;;;;;;;;;;;;;;13.17;86.37;100979.91;1589367;88;20492;-84
2021/09/08 02:12:00;;;;;;;;;;;;;;;13.11;87.11;100976.54;1590881;88;20215;-85
2021/09/08 02:14:28;;;;;;;;;;;;;;;12.97;87.36;100981.05;1629515;86;21998;-84
2021/09/08 02:16:53;;;;;;;;;;;;;;;12.81;88.48;100983.88;1587702;88;20209;-84
2021/09/08 02:19:21;;;;;;;;;;;;;;;12.85;87.98;100986.59;1590737;88;20278;-83
2021/09/08 02:21:48;;;;;;;;;;;;;;;12.92;87.39;100982.33;1589854;88;20192;-84
2021/09/08 02:24:16;;;;;;;;;;;;;;;12.98;87.36;100989.36;1589872;88;20143;-84
2021/09/08 02:26:42;;;;;;;;;;;;;;;13.00;87.02;100984.73;1591042;87;21074;-84
2021/09/08 02:29:09;;;;;;;;;;;;;;;12.97;87.10;100983.70;1591247;88;20172;-85
2021/09/08 02:31:35;;;;;;;;;;;;;;;12.97;86.62;100980.55;1588241;88;20140;-83
2021/09/08 02:34:01;;;;;;;;;;;;;;;13.03;86.35;100981.77;1631922;87;20271;-84
2021/09/08 02:36:27;;;;;;;;;;;;;;;12.98;86.70;100981.41;1617743;87;20326;-82
2021/09/08 02:38:55;;;;;;;;;;;;;;;12.90;87.05;100983.48;1619948;86;20153;-84
2021/09/08 02:41:25;;;;;;;;;;;;;;;12.84;87.44;100979.61;1619773;87;20150;-82
2021/09/08 02:43:51;;;;;;;;;;;;;;;12.75;87.94;100973.88;1622824;87;20657;-83
2021/09/08 02:46:16;;;;;;;;;;;;;;;12.69;88.28;100979.78;1619721;86;20172;-84
2021/09/08 02:48:42;;;;;;;;;;;;;;;12.60;88.37;100974.05;1628486;86;20206;-85
2021/09/08 02:51:12;;;;;;;;;;;;;;;12.56;88.50;100978.32;1629565;85;21207;-87
2021/09/08 02:53:39;;;;;;;;;;;;;;;12.55;88.80;100983.30;1589856;88;21366;-87
2021/09/08 02:56:06;;;;;;;;;;;;;;;12.54;88.11;100981.63;1588297;88;20163;-87
2021/09/08 02:58:32;;;;;;;;;;;;;;;12.51;88.07;100982.42;1591053;88;20701;-87
2021/09/08 03:00:58;;;;;;;;;;;;;;;12.48;88.12;100986.19;1621071;87;20187;-87
2021/09/08 03:03:23;;;;;;;;;;;;;;;12.45;88.23;100985.16;1620953;87;21106;-87
2021/09/08 03:05:49;;;;;;;;;;;;;;;12.44;88.29;100984.80;1628381;86;20806;-86
2021/09/08 03:08:15;;;;;;;;;;;;;;;12.50;88.29;100985.53;1631468;86;20220;-87
2021/09/08 03:10:43;;;;;;;;;;;;;;;12.54;87.98;100985.59;1630665;86;21149;-87
2021/09/08 03:13:13;;;;;;;;;;;;;;;12.47;87.96;100988.48;1631938;85;20184;-87
2021/09/08 03:15:40;;;;;;;;;;;;;;;12.46;87.84;100986.84;1587345;88;21951;-87
2021/09/08 03:18:06;;;;;;;;;;;;;;;12.50;87.29;100982.89;1629318;86;20492;-85
2021/09/08 03:20:36;;;;;;;;;;;;;;;12.49;87.24;100981.24;1622212;87;20264;-86
2021/09/08 03:23:04;;;;;;;;;;;;;;;12.46;87.28;100984.19;1623606;87;20163;-86
2021/09/08 03:25:29;;;;;;;;;;;;;;;12.45;87.31;100985.16;1617439;87;20205;-85
2021/09/08 03:27:55;;;;;;;;;;;;;;;12.51;87.11;100987.22;1631666;86;21159;-85
2021/09/08 03:30:21;;;;;;;;;;;;;;;12.50;87.10;100987.36;1632504;85;20210;-86
2021/09/08 03:32:50;;;;;;;;;;;;;;;12.49;87.07;100978.59;1628245;86;20325;-86
2021/09/08 03:35:22;;;;;;;;;;;;;;;12.53;86.81;100977.30;1588822;88;21085;-87
2021/09/08 03:37:49;;;;;;;;;;;;;;;12.56;86.37;100973.52;1587397;88;20484;-85
2021/09/08 03:40:16;;;;;;;;;;;;;;;12.60;86.24;100979.34;1590200;87;21102;-86
2021/09/08 03:42:43;;;;;;;;;;;;;;;12.64;85.83;100982.05;1586232;88;20152;-85
2021/09/08 03:45:09;;;;;;;;;;;;;;;12.67;85.43;100977.78;1565443;89;20655;-85
2021/09/08 03:47:35;;;;;;;;;;;;;;;12.69;85.14;100983.75;1628763;86;20731;-85
2021/09/08 03:50:00;;;;;;;;;;;;;;;12.68;85.10;100985.59;1629018;86;20203;-87
2021/09/08 03:52:26;;;;;;;;;;;;;;;12.63;85.10;100975.08;1592414;88;21126;-85
2021/09/08 03:54:52;;;;;;;;;;;;;;;12.69;84.75;100982.44;1631415;86;20641;-86
2021/09/08 03:57:19;;;;;;;;;;;;;;;12.69;84.28;100978.45;1628069;86;20156;-85
2021/09/08 03:59:45;;;;;;;;;;;;;;;12.68;84.28;100984.76;1629563;86;20326;-85
2021/09/08 04:02:13;;;;;;;;;;;;;;;12.67;84.10;100977.78;1629655;85;20552;-86
2021/09/08 04:04:39;;;;;;;;;;;;;;;12.66;84.12;100980.08;1606510;88;20751;-85
2021/09/08 04:07:06;;;;;;;;;;;;;;;12.67;83.91;100981.25;1624799;86;20195;-86
2021/09/08 04:09:32;;;;;;;;;;;;;;;12.70;83.57;100978.81;1622771;86;20263;-85
2021/09/08 04:11:59;;;;;;;;;;;;;;;12.69;83.77;100987.73;1617737;88;20712;-86
2021/09/08 04:14:27;;;;;;;;;;;;;;;12.68;83.84;100980.78;1621714;86;20224;-86
2021/09/08 04:16:52;;;;;;;;;;;;;;;12.66;84.13;100984.05;1626793;87;21933;-85
2021/09/08 04:19:20;;;;;;;;;;;;;;;12.62;84.18;100984.03;1612820;87;20235;-85
2021/09/08 04:21:47;;;;;;;;;;;;;;;12.59;84.42;100977.20;1605270;87;20488;-85
2021/09/08 04:24:14;;;;;;;;;;;;;;;12.60;84.27;100977.55;1615816;87;20142;-86
2021/09/08 04:26:44;;;;;;;;;;;;;;;12.62;84.30;100982.20;1616398;87;20189;-84
2021/09/08 04:29:12;;;;;;;;;;;;;;;12.51;84.65;100980.59;1612973;87;22091;-88
2021/09/08 04:31:39;;;;;;;;;;;;;;;12.49;85.19;100985.22;1617982;87;20156;-85
2021/09/08 04:34:08;;;;;;;;;;;;;;;12.47;85.17;100983.19;1616070;86;20453;-83
2021/09/08 04:36:35;;;;;;;;;;;;;;;12.44;85.36;100991.92;1616298;85;20232;-86
2021/09/08 04:39:01;;;;;;;;;;;;;;;12.42;86.00;100990.75;1618931;87;20196;-86
2021/09/08 04:41:27;;;;;;;;;;;;;;;12.42;86.69;100987.28;1614290;87;21989;-87
2021/09/08 04:43:53;;;;;;;;;;;;;;;12.46;87.16;100992.14;1619201;86;20986;-87
2021/09/08 04:46:19;;;;;;;;;;;;;;;12.53;86.68;100990.54;1616848;87;20315;-86
2021/09/08 04:48:44;;;;;;;;;;;;;;;12.54;86.22;100994.88;1615783;87;20157;-87
2021/09/08 04:51:10;;;;;;;;;;;;;;;12.63;85.93;101000.25;1602304;87;20192;-85
2021/09/08 04:53:36;;;;;;;;;;;;;;;12.66;85.53;100999.95;1620066;87;21075;-86
2021/09/08 04:56:03;;;;;;;;;;;;;;;12.74;85.13;100997.41;1617320;87;20266;-86
2021/09/08 04:58:28;;;;;;;;;;;;;;;12.78;84.92;100995.29;1617539;87;20151;-85
2021/09/08 05:00:54;;;;;;;;;;;;;;;12.79;84.70;100995.14;1616695;87;20224;-85
2021/09/08 05:03:19;;;;;;;;;;;;;;;12.86;84.24;100993.53;1617847;87;20469;-87
2021/09/08 05:05:46;;;;;;;;;;;;;;;12.88;83.95;100996.89;1618836;87;21163;-81
2021/09/08 05:08:14;;;;;;;;;;;;;;;12.93;83.63;100998.59;1606330;87;20156;-83
2021/09/08 05:10:39;;;;;;;;;;;;;;;12.90;83.56;100997.56;1600526;87;20181;-85
2021/09/08 05:13:08;;;;;;;;;;;;;;;12.93;83.49;101004.39;1594681;88;20183;-83
2021/09/08 05:15:34;;;;;;;;;;;;;;;12.97;83.39;101002.27;1586765;88;20332;-85
2021/09/08 05:18:01;;;;;;;;;;;;;;;13.03;83.37;100999.02;1585650;88;21057;-85
2021/09/08 05:20:28;;;;;;;;;;;;;;;13.05;83.11;100997.89;1602414;88;20268;-84
2021/09/08 05:22:54;;;;;;;;;;;;;;;13.08;83.05;100998.91;1594541;88;20132;-82
2021/09/08 05:25:24;;;;;;;;;;;;;;;13.10;82.71;101006.72;1596998;88;20238;-83
2021/09/08 05:27:51;;;;;;;;;;;;;;;13.20;82.73;100995.52;1598637;88;20596;-85
2021/09/08 05:30:17;;;;;;;;;;;;;;;13.25;82.61;100998.56;1594146;88;21116;-88
2021/09/08 05:32:48;;;;;;;;;;;;;;;13.28;82.51;100996.94;1594191;88;20266;-85
2021/09/08 05:35:15;;;;;;;;;;;;;;;13.29;82.55;101001.23;1595586;88;20164;-87
2021/09/08 05:37:41;;;;;;;;;;;;;;;13.29;82.67;100999.91;1591214;88;20235;-83
2021/09/08 05:40:09;;;;;;;;;;;;;;;13.36;82.80;101004.62;1600133;88;20245;-87
2021/09/08 05:42:34;;;;;;;;;;;;;;;13.40;82.74;101006.83;1593699;88;21262;-84
2021/09/08 05:45:02;;;;;;;;;;;;;;;13.39;82.54;100999.02;1596592;88;20221;-83
2021/09/08 05:47:27;;;;;;;;;;;;;;;13.41;82.90;100997.06;1597072;88;20518;-82
2021/09/08 05:49:54;;;;;;;;;;;;;;;13.43;82.77;101002.54;1584001;88;20147;-85
2021/09/08 05:52:27;;;;;;;;;;;;;;;13.45;82.45;100996.60;1580352;88;20725;-83
2021/09/08 05:54:53;;;;;;;;;;;;;;;13.52;82.41;100996.81;1591171;88;20552;-82
2021/09/08 05:57:19;;;;;;;;;;;;;;;13.58;82.29;100994.87;1584431;88;20256;-85
2021/09/08 05:59:47;;;;;;;;;;;;;;;13.58;82.70;100997.52;1599160;88;20356;-84
2021/09/08 06:02:12;;;;;;;;;;;;;;;13.69;82.36;101002.22;1595416;88;20187;-84
2021/09/08 06:04:38;;;;;;;;;;;;;;;13.74;82.57;101002.61;1595947;87;20184;-84
2021/09/08 06:07:05;;;;;;;;;;;;;;;13.76;82.60;101000.11;1601098;87;21168;-84
2021/09/08 06:09:39;;;;;;;;;;;;;;;13.81;82.71;101003.63;1628856;85;20140;-84
2021/09/08 06:12:05;;;;;;;;;;;;;;;13.88;82.71;100988.75;1632834;86;20132;-85
2021/09/08 06:14:37;;;;;;;;;;;;;;;14.00;82.36;100998.11;1630953;86;20247;-88
2021/09/08 06:17:03;;;;;;;;;;;;;;;14.09;82.41;100998.14;1631218;86;20243;-84
2021/09/08 06:19:32;;;;;;;;;;;;;;;14.11;82.43;100998.84;1629845;86;21133;-85
2021/09/08 06:22:02;;;;;;;;;;;;;;;14.14;82.64;100993.21;1628907;86;20175;-84
2021/09/08 06:24:27;;;;;;;;;;;;;;;14.14;82.81;100993.21;1631904;86;20300;-83
2021/09/08 06:26:55;;;;;;;;;;;;;;;14.23;82.91;100984.77;1629623;86;20525;-84
2021/09/08 06:29:23;;;;;;;;;;;;;;;14.23;82.62;100988.27;1631652;86;20184;-83
2021/09/08 06:31:50;;;;;;;;;;;;;;;14.30;82.57;100985.80;1631950;86;21159;-83
2021/09/08 06:34:18;;;;;;;;;;;;;;;14.27;82.81;100982.13;1611918;86;20314;-83
2021/09/08 06:36:43;;;;;;;;;;;;;;;14.26;83.06;100979.13;1633726;85;20194;-85
2021/09/08 06:39:09;;;;;;;;;;;;;;;14.34;83.07;100982.67;1627602;85;20140;-84
2021/09/08 06:41:36;;;;;;;;;;;;;;;14.42;82.87;100974.37;1628829;86;20241;-82
2021/09/08 06:44:03;;;;;;;;;;;;;;;14.48;82.82;100984.36;1633193;86;20799;-86
2021/09/08 06:46:29;;;;;;;;;;;;;;;14.55;82.58;100986.20;1626353;86;20149;-87
2021/09/08 06:48:55;;;;;;;;;;;;;;;14.63;82.56;100990.75;1631598;86;20302;-83
2021/09/08 06:51:22;;;;;;;;;;;;;;;14.61;81.94;100994.58;1629482;86;20377;-86
2021/09/08 06:53:52;;;;;;;;;;;;;;;14.63;82.31;100994.73;1631217;86;20228;-84
2021/09/08 06:56:20;;;;;;;;;;;;;;;14.78;82.61;100996.78;1627381;86;20481;-84
2021/09/08 06:58:47;;;;;;;;;;;;;;;14.92;82.58;100999.31;1629767;86;20162;-86
2021/09/08 07:01:13;;;;;;;;;;;;;;;15.03;82.44;101000.31;1626685;86;20682;-83
2021/09/08 07:03:40;;;;;;;;;;;;;;;15.10;81.50;100999.15;1626002;86;20458;-80
2021/09/08 07:06:09;;;;;;;;;;;;;;;15.20;81.01;101003.83;1629673;86;20157;-85
2021/09/08 07:08:34;;;;;;;;;;;;;;;15.24;80.72;101003.80;1627358;86;20538;-85
2021/09/08 07:11:00;;;;;;;;;;;;;;;15.34;80.70;101004.48;1623801;87;20132;-81
2021/09/08 07:13:25;;;;;;;;;;;;;;;15.40;80.31;100998.49;1623050;87;20153;-82
2021/09/08 07:15:55;;;;;;;;;;;;;;;15.43;80.07;100998.67;1618249;87;20128;-82
2021/09/08 07:18:25;;;;;;;;;;;;;;;15.46;80.15;100993.49;1617638;87;20198;-85
2021/09/08 07:20:51;;;;;;;;;;;;;;;15.57;79.91;101003.82;1619899;86;21160;-83
2021/09/08 07:23:16;;;;;;;;;;;;;;;15.63;79.50;101005.81;1619306;87;20200;-81
2021/09/08 07:25:44;;;;;;;;;;;;;;;15.71;79.27;101003.13;1616172;87;20928;-85
2021/09/08 07:28:10;;;;;;;;;;;;;;;15.84;79.41;101004.47;1618594;87;20176;-81
2021/09/08 07:30:38;;;;;;;;;;;;;;;15.87;78.90;101002.80;1606094;87;20204;-85
2021/09/08 07:33:03;;;;;;;;;;;;;;;15.93;78.89;101004.27;1616620;87;21277;-85
2021/09/08 07:35:29;;;;;;;;;;;;;;;15.98;78.75;101001.09;1616953;87;20497;-85
2021/09/08 07:37:58;;;;;;;;;;;;;;;16.06;78.86;101003.73;1617854;87;20163;-85
2021/09/08 07:40:27;;;;;;;;;;;;;;;16.16;78.50;100999.56;1615387;87;20171;-83
2021/09/08 07:42:56;;;;;;;;;;;;;;;16.27;78.59;101007.69;1615051;87;20583;-82
2021/09/08 07:45:24;;;;;;;;;;;;;;;16.38;78.56;101006.48;1613143;87;21408;-85
2021/09/08 07:47:52;;;;;;;;;;;;;;;16.45;78.54;101010.94;1620773;87;20998;-82
2021/09/08 07:50:18;;;;;;;;;;;;;;;16.56;78.62;101010.20;1622813;87;20486;-83
2021/09/08 07:52:44;;;;;;;;;;;;;;;16.66;79.14;101010.32;1618560;87;20209;-82
2021/09/08 07:55:12;;;;;;;;;;;;;;;16.75;79.10;101012.45;1619743;87;20145;-82
2021/09/08 07:57:40;;;;;;;;;;;;;;;16.85;79.19;101010.37;1622960;87;20372;-81
2021/09/08 08:00:10;;;;;;;;;;;;;;;16.96;78.54;101007.83;1620840;87;20288;-86
2021/09/08 08:02:44;;;;;;;;;;;;;;;17.11;78.60;101013.25;1615669;87;21141;-82
2021/09/08 08:05:14;;;;;;;;;;;;;;;17.20;78.77;101010.84;1626469;86;20140;-81
2021/09/08 08:07:41;;;;;;;;;;;;;;;17.37;78.37;101014.70;1624339;87;20267;-82
2021/09/08 08:10:09;;;;;;;;;;;;;;;17.46;77.68;101012.28;1620127;87;21137;-83
2021/09/08 08:12:36;;;;;;;;;;;;;;;17.54;77.07;101009.56;1580621;88;20157;-81
2021/09/08 08:15:04;;;;;;;;;;;;;;;17.66;77.13;101013.13;1581386;89;20509;-83
2021/09/08 08:17:30;;;;;;;;;;;;;;;17.71;76.57;101008.05;1565032;89;20209;-85
2021/09/08 08:19:56;;;;;;;;;;;;;;;17.81;76.39;101005.96;1619587;87;20182;-82
2021/09/08 08:22:23;;;;;;;;;;;;;;;17.87;76.38;101003.08;1621842;87;21143;-81
2021/09/08 08:24:49;;;;;;;;;;;;;;;17.99;76.66;101010.14;1601149;87;21335;-82
2021/09/08 08:27:14;;;;;;;;;;;;;;;18.07;76.14;101011.38;1617368;87;20557;-80
2021/09/08 08:29:42;;;;;;;;;;;;;;;18.13;76.21;101011.98;1578915;89;20423;-82
2021/09/08 08:32:09;;;;;;;;;;;;;;;18.20;76.34;101012.91;1610326;86;20238;-84
2021/09/08 08:34:34;;;;;;;;;;;;;;;18.26;76.57;101016.18;1617427;87;21205;-83
2021/09/08 08:37:03;;;;;;;;;;;;;;;18.29;76.55;101012.31;1620123;87;20159;-84
2021/09/08 08:39:29;;;;;;;;;;;;;;;18.36;76.41;101014.55;1629474;86;20531;-82
2021/09/08 08:41:59;;;;;;;;;;;;;;;18.44;76.18;101016.29;1630977;86;20207;-81
2021/09/08 08:44:25;;;;;;;;;;;;;;;18.50;75.90;101018.22;1628842;86;20183;-83
2021/09/08 08:46:54;;;;;;;;;;;;;;;18.55;76.00;101010.48;1631023;86;21799;-84
2021/09/08 08:49:20;;;;;;;;;;;;;;;18.66;76.08;101014.00;1609511;86;20160;-81
2021/09/08 08:51:49;;;;;;;;;;;;;;;18.72;75.59;101014.25;1632226;86;20171;-82
2021/09/08 08:54:16;;;;;;;;;;;;;;;18.74;75.32;101016.25;1632257;86;20504;-84
2021/09/08 08:56:43;;;;;;;;;;;;;;;18.77;75.61;101015.88;1626489;86;20208;-81
2021/09/08 08:59:10;;;;;;;;;;;;;;;18.84;75.55;101014.94;1629559;86;21117;-84
2021/09/08 09:01:38;;;;;;;;;;;;;;;18.94;75.39;101017.32;1630618;85;20156;-83
2021/09/08 09:04:11;;;;;;;;;;;;;;;19.01;75.00;101011.51;1608964;87;20515;-84
2021/09/08 09:06:41;;;;;;;;;;;;;;;19.08;74.97;101022.80;1629546;86;20135;-81
2021/09/08 09:09:11;;;;;;;;;;;;;;;19.17;74.06;101014.46;1631515;85;20210;-81
2021/09/08 09:11:37;;;;;;;;;;;;;;;19.29;74.70;101014.76;1631579;86;21109;-81
2021/09/08 09:14:06;;;;;;;;;;;;;;;19.40;74.27;101013.93;1630145;86;20267;-82
2021/09/08 09:16:34;;;;;;;;;;;;;;;19.46;73.91;101011.81;1627669;86;20169;-81
2021/09/08 09:19:00;;;;;;;;;;;;;;;19.54;73.65;101007.65;1629858;86;20176;-89
2021/09/08 09:21:26;;;;;;;;;;;;;;;19.64;73.53;101009.49;1631070;86;20176;-84
2021/09/08 09:23:57;;;;;;;;;;;;;;;19.77;72.90;101012.80;1630591;86;21301;-83
2021/09/08 09:26:34;;;;;;;;;;;;;;;19.87;73.14;101009.27;1629879;86;20163;-80
2021/09/08 09:29:12;;;;;;;;;;;;;;;19.93;73.14;101005.48;1630005;85;20184;-83
2021/09/08 09:31:53;;;;;;;;;;;;;;;20.07;72.54;101005.37;1631340;86;20986;-83
2021/09/08 09:34:18;;;;;;;;;;;;;;;20.22;72.28;101011.11;1610889;86;20199;-80
2021/09/08 09:36:47;;;;;;;;;;;;;;;20.36;71.64;101006.11;1629502;86;21901;-82
2021/09/08 09:39:14;;;;;;;;;;;;;;;20.41;71.13;101007.67;1629201;86;20140;-82
2021/09/08 09:41:42;;;;;;;;;;;;;;;20.45;70.11;101000.89;1628714;86;20167;-80
2021/09/08 09:44:10;;;;;;;;;;;;;;;20.57;70.60;101005.66;1632864;86;20185;-82
2021/09/08 09:46:40;;;;;;;;;;;;;;;20.69;70.28;101005.95;1627822;86;20205;-83
2021/09/08 09:49:06;;;;;;;;;;;;;;;20.82;70.73;100994.41;1626620;86;21940;-80
2021/09/08 09:51:32;;;;;;;;;;;;;;;20.88;69.86;100996.28;1632179;86;20230;-79
2021/09/08 09:53:58;;;;;;;;;;;;;;;20.97;70.00;100993.72;1630586;86;20216;-81
2021/09/08 09:56:24;;;;;;;;;;;;;;;21.02;69.61;100984.56;1633055;85;20278;-84
2021/09/08 09:58:51;;;;;;;;;;;;;;;21.07;68.99;100988.79;1611980;86;20397;-81
2021/09/08 10:01:19;;;;;;;;;;;;;;;21.12;68.53;100984.96;1630894;86;21058;-86
2021/09/08 10:03:47;;;;;;;;;;;;;;;21.21;68.86;100988.78;1628364;86;20503;-83
2021/09/08 10:06:14;;;;;;;;;;;;;;;21.26;68.59;100983.64;1628765;86;20148;-83
2021/09/08 10:08:48;;;;;;;;;;;;;;;21.31;68.02;100975.78;1629480;86;20224;-82
2021/09/08 10:11:17;;;;;;;;;;;;;;;21.33;66.58;100978.58;1616559;87;20264;-84
2021/09/08 10:13:50;;;;;;;;;;;;;;;21.32;64.07;100978.78;1638928;86;21097;-83
2021/09/08 10:16:17;;;;;;;;;;;;;;;21.39;63.76;100977.42;1559965;90;20240;-81
2021/09/08 10:18:42;;;;;;;;;;;;;;;21.44;64.02;100965.03;1577437;89;20566;-82
2021/09/08 10:21:09;;;;;;;;;;;;;;;21.54;63.18;100977.25;1604224;87;20325;-83
2021/09/08 10:23:40;;;;;;;;;;;;;;;21.58;62.54;100971.75;1586607;88;20200;-83
2021/09/08 10:26:11;;;;;;;;;;;;;;;21.63;62.49;100969.28;1565120;88;20843;-81
2021/09/08 10:28:38;;;;;;;;;;;;;;;21.71;61.49;100969.58;1566494;88;39008;-84
2021/09/08 10:31:04;;;;;;;;;;;;;;;21.79;61.83;100967.47;1585396;88;20268;-83
2021/09/08 10:33:31;;;;;;;;;;;;;;;21.87;61.49;100973.95;1615989;87;20255;-86
2021/09/08 10:35:56;;;;;;;;;;;;;;;21.89;60.89;100967.03;1604640;87;20257;-81
2021/09/08 10:38:25;;;;;;;;;;;;;;;21.95;61.26;100964.84;1579502;89;21174;-84
2021/09/08 10:40:51;;;;;;;;;;;;;;;22.02;60.83;100967.53;1589149;88;20218;-84
2021/09/08 10:43:29;;;;;;;;;;;;;;;22.09;60.43;100957.55;1589186;88;20198;-79
2021/09/08 10:45:56;;;;;;;;;;;;;;;22.14;59.41;100955.07;1564916;88;20220;-82
2021/09/08 10:48:42;;;;;;;;;;;;;;;22.14;58.42;100956.91;1605365;88;20174;-83
2021/09/08 10:51:22;;;;;;;;;;;;;;;22.25;58.16;100953.58;1609216;88;20118;-83
2021/09/08 10:54:04;;;;;;;;;;;;;;;22.24;57.09;100944.66;1610805;88;20188;-88
2021/09/08 10:56:48;;;;;;;;;;;;;;;22.40;55.53;100956.00;1610876;86;20157;-83
2021/09/08 10:59:14;;;;;;;;;;;;;;;22.38;55.20;100950.02;1613115;88;20213;-83
2021/09/08 11:01:42;;;;;;;;;;;;;;;22.41;55.52;100952.28;1611625;87;20201;-83
2021/09/08 11:04:15;;;;;;;;;;;;;;;22.47;55.47;100951.42;1608775;86;20211;-81
2021/09/08 11:06:44;;;;;;;;;;;;;;;22.46;55.55;100948.41;1607724;88;20197;-83
2021/09/08 11:09:13;;;;;;;;;;;;;;;22.54;55.65;100952.22;1607874;87;20601;-81
2021/09/08 11:11:53;;;;;;;;;;;;;;;22.54;55.82;100944.14;1616982;87;20169;-85
2021/09/08 11:14:21;;;;;;;;;;;;;;;22.59;56.34;100941.63;1622399;87;20204;-81
2021/09/08 11:16:48;;;;;;;;;;;;;;;22.67;56.52;100937.84;1622156;86;20141;-82
2021/09/08 11:19:14;;;;;;;;;;;;;;;22.78;56.80;100936.33;1623231;87;20536;-82
2021/09/08 11:21:42;;;;;;;;;;;;;;;22.85;56.16;100931.70;1620861;87;20572;-82
2021/09/08 11:24:10;;;;;;;;;;;;;;;22.94;55.13;100935.77;1620572;86;20192;-81
2021/09/08 11:26:40;;;;;;;;;;;;;;;22.93;54.72;100931.45;1622417;87;20308;-83
2021/09/08 11:29:14;;;;;;;;;;;;;;;22.99;54.98;100928.91;1625228;85;20184;-82
2021/09/08 11:31:45;;;;;;;;;;;;;;;23.04;54.79;100925.88;1617807;87;20524;-82
2021/09/08 11:34:27;;;;;;;;;;;;;;;23.08;54.64;100924.91;1616838;87;20164;-83
2021/09/08 11:36:56;;;;;;;;;;;;;;;23.11;54.95;100924.50;1620793;86;20545;-81
2021/09/08 11:39:22;;;;;;;;;;;;;;;23.19;54.17;100933.64;1620400;87;20123;-83
2021/09/08 11:42:04;;;;;;;;;;;;;;;23.12;53.49;100932.89;1580300;89;21109;-80
2021/09/08 11:44:33;;;;;;;;;;;;;;;23.18;53.33;100929.31;1598119;87;20231;-77
2021/09/08 11:47:06;;;;;;;;;;;;;;;23.24;53.66;100923.05;1595898;87;20207;-82
2021/09/08 11:49:31;;;;;;;;;;;;;;;23.27;53.26;100918.56;1611186;87;20656;-79
2021/09/08 11:51:58;;;;;;;;;;;;;;;23.34;52.45;100920.34;1615088;87;20180;-80
2021/09/08 11:54:24;;;;;;;;;;;;;;;23.30;52.59;100912.72;1611833;87;21130;-80
2021/09/08 11:56:55;;;;;;;;;;;;;;;23.42;52.63;100911.45;1621322;87;20262;-80
2021/09/08 11:59:29;;;;;;;;;;;;;;;23.52;52.69;100913.62;1613515;87;20138;-84
2021/09/08 12:01:57;;;;;;;;;;;;;;;23.62;51.81;100910.43;1617761;87;20248;-79
2021/09/08 12:04:26;;;;;;;;;;;;;;;23.47;51.67;100909.44;1614673;87;20265;-80
2021/09/08 12:06:59;;;;;;;;;;;;;;;23.61;51.40;100912.28;1620581;87;20147;-80
2021/09/08 12:09:35;;;;;;;;;;;;;;;23.70;51.54;100906.61;1618004;87;20204;-81
2021/09/08 12:12:15;;;;;;;;;;;;;;;23.87;51.57;100903.63;1609061;88;20513;-81
2021/09/08 12:14:49;;;;;;;;;;;;;;;23.98;51.36;100909.61;1596712;88;20226;-87
2021/09/08 12:17:26;;;;;;;;;;;;;;;24.07;50.86;100899.34;1609963;88;20494;-82
2021/09/08 12:20:14;;;;;;;;;;;;;;;24.16;50.64;100907.42;1606821;87;21144;-84
2021/09/08 12:22:42;;;;;;;;;;;;;;;24.15;50.53;100905.77;1666280;83;20223;-83
2021/09/08 12:25:19;;;;;;;;;;;;;;;24.22;50.79;100902.97;1682607;83;20167;-84
2021/09/08 12:27:50;;;;;;;;;;;;;;;24.27;50.52;100904.98;1686191;83;20215;-83
2021/09/08 12:30:24;;;;;;;;;;;;;;;24.22;50.32;100897.56;1685389;83;20159;-86
2021/09/08 12:32:54;;;;;;;;;;;;;;;24.31;50.36;100894.03;1686439;83;20180;-84
2021/09/08 12:35:43;;;;;;;;;;;;;;;24.30;50.46;100896.42;1688385;83;20156;-84
2021/09/08 12:38:32;;;;;;;;;;;;;;;24.31;50.11;100886.75;1670274;84;20121;-83
2021/09/08 12:41:10;;;;;;;;;;;;;;;24.25;50.03;100890.90;1674364;84;20162;-87